sensor_id;sensor_type;location;lat;lon;timestamp;pressure;altitude;pressure_sealevel;temperature;humidity
69667;BME280;66534;52.370;4.832;2023-03-21T00:00:17;101598.84;;;8.95;100.00
69667;BME280;66534;52.370;4.832;2023-03-21T00:00:52;101604.81;;;9.01;100.00
69667;BME280;66534;52.370;4.832;2023-03-21T00:01:24;101597.03;;;8.97;100.00
69667;BME280;66534;52.370;4.832;2023-03-21T00:01:55;101599.84;;;8.90;100.00
69667;BME280;66534;52.370;4.832;2023-03-21T00:02:25;101603.31;;;8.92;100.00
69667;BME280;66534;52.370;4.832;2023-03-21T00:02:56;101598.13;;;8.89;100.00
69667;BME280;66534;52.370;4.832;2023-03-21T00:03:26;101593.81;;;8.88;100.00
69667;BME280;66534;52.370;4.832;2023-03-21T00:03:57;101592.97;;;8.87;100.00
69667;BME280;66534;52.370;4.832;2023-03-21T00:04:28;101600.94;;;8.81;100.00
69667;BME280;66534;52.370;4.832;2023-03-21T00:04:58;101599.28;;;8.79;100.00
69667;BME280;66534;52.370;4.832;2023-03-21T00:05:29;101592.31;;;8.78;100.00
69667;BME280;66534;52.370;4.832;2023-03-21T00:06:06;101591.28;;;8.85;100.00
69667;BME280;66534;52.370;4.832;2023-03-21T00:06:38;101590.47;;;8.83;100.00
69667;BME280;66534;52.370;4.832;2023-03-21T00:07:09;101591.28;;;8.85;100.00
69667;BME280;66534;52.370;4.832;2023-03-21T00:07:40;101587.97;;;8.78;100.00
69667;BME280;66534;52.370;4.832;2023-03-21T00:08:10;101587.06;;;8.78;100.00
69667;BME280;66534;52.370;4.832;2023-03-21T00:08:41;101586.09;;;8.82;100.00
69667;BME280;66534;52.370;4.832;2023-03-21T00:09:11;101591.94;;;8.93;100.00
69667;BME280;66534;52.370;4.832;2023-03-21T00:09:42;101586.03;;;8.85;100.00
69667;BME280;66534;52.370;4.832;2023-03-21T00:10:12;101583.47;;;8.83;100.00
69667;BME280;66534;52.370;4.832;2023-03-21T00:10:44;101587.75;;;8.86;100.00
69667;BME280;66534;52.370;4.832;2023-03-21T00:11:14;101581.78;;;8.81;100.00
69667;BME280;66534;52.370;4.832;2023-03-21T00:11:45;101590.59;;;8.78;100.00
69667;BME280;66534;52.370;4.832;2023-03-21T00:12:17;101581.94;;;8.75;100.00
69667;BME280;66534;52.370;4.832;2023-03-21T00:12:49;101588.09;;;8.72;100.00
69667;BME280;66534;52.370;4.832;2023-03-21T00:13:24;101588.03;;;8.75;100.00
69667;BME280;66534;52.370;4.832;2023-03-21T00:13:57;101582.63;;;8.83;100.00
69667;BME280;66534;52.370;4.832;2023-03-21T00:14:31;101585.22;;;8.83;100.00
69667;BME280;66534;52.370;4.832;2023-03-21T00:15:03;101587.00;;;8.81;100.00
69667;BME280;66534;52.370;4.832;2023-03-21T00:15:37;101580.25;;;8.72;100.00
69667;BME280;66534;52.370;4.832;2023-03-21T00:16:19;101577.69;;;8.70;100.00
69667;BME280;66534;52.370;4.832;2023-03-21T00:16:49;101583.72;;;8.72;100.00
69667;BME280;66534;52.370;4.832;2023-03-21T00:17:19;101594.19;;;8.72;100.00
69667;BME280;66534;52.370;4.832;2023-03-21T00:17:53;101576.72;;;8.73;100.00
69667;BME280;66534;52.370;4.832;2023-03-21T00:18:32;101582.75;;;8.77;100.00
69667;BME280;66534;52.370;4.832;2023-03-21T00:19:05;101586.38;;;8.71;100.00
69667;BME280;66534;52.370;4.832;2023-03-21T00:19:38;101583.78;;;8.71;100.00
69667;BME280;66534;52.370;4.832;2023-03-21T00:20:10;101583.81;;;8.69;100.00
69667;BME280;66534;52.370;4.832;2023-03-21T00:20:56;101583.78;;;8.71;100.00
69667;BME280;66534;52.370;4.832;2023-03-21T00:21:31;101580.00;;;8.83;100.00
69667;BME280;66534;52.370;4.832;2023-03-21T00:22:02;101580.78;;;8.86;100.00
69667;BME280;66534;52.370;4.832;2023-03-21T00:22:33;101585.25;;;8.81;100.00
69667;BME280;66534;52.370;4.832;2023-03-21T00:23:04;101582.75;;;8.77;100.00
69667;BME280;66534;52.370;4.832;2023-03-21T00:23:35;101577.38;;;8.83;100.00
69667;BME280;66534;52.370;4.832;2023-03-21T00:24:05;101576.31;;;8.90;100.00
69667;BME280;66534;52.370;4.832;2023-03-21T00:24:36;101577.28;;;8.86;100.00
69667;BME280;66534;52.370;4.832;2023-03-21T00:25:08;101578.97;;;8.88;100.00
69667;BME280;66534;52.370;4.832;2023-03-21T00:25:39;101582.63;;;8.81;100.00
69667;BME280;66534;52.370;4.832;2023-03-21T00:26:10;101575.06;;;8.70;100.00
69667;BME280;66534;52.370;4.832;2023-03-21T00:26:41;101574.13;;;8.73;100.00
69667;BME280;66534;52.370;4.832;2023-03-21T00:27:11;101571.25;;;8.84;100.00
69667;BME280;66534;52.370;4.832;2023-03-21T00:27:42;101574.66;;;8.86;100.00
69667;BME280;66534;52.370;4.832;2023-03-21T00:28:13;101571.31;;;8.81;100.00
69667;BME280;66534;52.370;4.832;2023-03-21T00:28:43;101567.13;;;8.73;100.00
69667;BME280;66534;52.370;4.832;2023-03-21T00:29:13;101570.66;;;8.72;100.00
69667;BME280;66534;52.370;4.832;2023-03-21T00:29:44;101572.34;;;8.73;100.00
69667;BME280;66534;52.370;4.832;2023-03-21T00:30:15;101574.06;;;8.76;100.00
69667;BME280;66534;52.370;4.832;2023-03-21T00:30:46;101568.69;;;8.82;100.00
69667;BME280;66534;52.370;4.832;2023-03-21T00:31:16;101576.53;;;8.82;100.00
69667;BME280;66534;52.370;4.832;2023-03-21T00:31:47;101575.56;;;8.85;100.00
69667;BME280;66534;52.370;4.832;2023-03-21T00:32:18;101570.50;;;8.79;100.00
69667;BME280;66534;52.370;4.832;2023-03-21T00:32:50;101568.88;;;8.73;100.00
69667;BME280;66534;52.370;4.832;2023-03-21T00:33:20;101577.63;;;8.72;100.00
69667;BME280;66534;52.370;4.832;2023-03-21T00:33:51;101573.25;;;8.72;100.00
69667;BME280;66534;52.370;4.832;2023-03-21T00:34:21;101574.97;;;8.75;100.00
69667;BME280;66534;52.370;4.832;2023-03-21T00:34:52;101574.97;;;8.73;100.00
69667;BME280;66534;52.370;4.832;2023-03-21T00:35:22;101567.97;;;8.76;100.00
69667;BME280;66534;52.370;4.832;2023-03-21T00:35:52;101568.00;;;8.74;100.00
69667;BME280;66534;52.370;4.832;2023-03-21T00:36:23;101577.53;;;8.77;100.00
69667;BME280;66534;52.370;4.832;2023-03-21T00:36:54;101569.75;;;8.73;100.00
69667;BME280;66534;52.370;4.832;2023-03-21T00:37:25;101568.81;;;8.76;100.00
69667;BME280;66534;52.370;4.832;2023-03-21T00:37:57;101571.56;;;8.71;100.00
69667;BME280;66534;52.370;4.832;2023-03-21T00:38:27;101573.38;;;8.69;100.00
69667;BME280;66534;52.370;4.832;2023-03-21T00:38:58;101568.03;;;8.72;100.00
69667;BME280;66534;52.370;4.832;2023-03-21T00:39:29;101568.88;;;8.75;100.00
69667;BME280;66534;52.370;4.832;2023-03-21T00:40:01;101570.53;;;8.77;100.00
69667;BME280;66534;52.370;4.832;2023-03-21T00:40:31;101561.91;;;8.73;100.00
69667;BME280;66534;52.370;4.832;2023-03-21T00:41:05;101573.38;;;8.69;100.00
69667;BME280;66534;52.370;4.832;2023-03-21T00:41:37;101573.38;;;8.69;100.00
69667;BME280;66534;52.370;4.832;2023-03-21T00:42:07;101565.41;;;8.72;100.00
69667;BME280;66534;52.370;4.832;2023-03-21T00:42:38;101565.28;;;8.77;100.00
69667;BME280;66534;52.370;4.832;2023-03-21T00:43:09;101565.28;;;8.79;100.00
69667;BME280;66534;52.370;4.832;2023-03-21T00:43:46;101568.94;;;8.71;100.00
69667;BME280;66534;52.370;4.832;2023-03-21T00:44:16;101563.63;;;8.75;100.00
69667;BME280;66534;52.370;4.832;2023-03-21T00:44:47;101569.66;;;8.77;100.00
69667;BME280;66534;52.370;4.832;2023-03-21T00:45:17;101566.19;;;8.76;100.00
69667;BME280;66534;52.370;4.832;2023-03-21T00:45:49;101565.19;;;8.82;100.00
69667;BME280;66534;52.370;4.832;2023-03-21T00:46:20;101573.06;;;8.80;100.00
69667;BME280;66534;52.370;4.832;2023-03-21T00:46:50;101558.28;;;8.79;100.00
69667;BME280;66534;52.370;4.832;2023-03-21T00:47:21;101561.03;;;8.75;100.00
69667;BME280;66534;52.370;4.832;2023-03-21T00:47:51;101561.03;;;8.73;100.00
69667;BME280;66534;52.370;4.832;2023-03-21T00:48:22;101560.00;;;8.80;100.00
69667;BME280;66534;52.370;4.832;2023-03-21T00:48:52;101562.72;;;8.76;100.00
69667;BME280;66534;52.370;4.832;2023-03-21T00:49:22;101567.91;;;8.77;100.00
69667;BME280;66534;52.370;4.832;2023-03-21T00:49:53;101558.31;;;8.78;100.00
69667;BME280;66534;52.370;4.832;2023-03-21T00:50:24;101561.63;;;8.84;100.00
69667;BME280;66534;52.370;4.832;2023-03-21T00:50:55;101560.78;;;8.84;100.00
69667;BME280;66534;52.370;4.832;2023-03-21T00:51:28;101563.59;;;8.76;100.00
69667;BME280;66534;52.370;4.832;2023-03-21T00:51:59;101559.28;;;8.73;100.00
69667;BME280;66534;52.370;4.832;2023-03-21T00:52:30;101559.22;;;8.77;100.00
69667;BME280;66534;52.370;4.832;2023-03-21T00:53:01;101554.75;;;8.80;100.00
69667;BME280;66534;52.370;4.832;2023-03-21T00:53:31;101565.22;;;8.80;100.00
69667;BME280;66534;52.370;4.832;2023-03-21T00:54:02;101558.34;;;8.76;100.00
69667;BME280;66534;52.370;4.832;2023-03-21T00:54:34;101556.72;;;8.72;100.00
69667;BME280;66534;52.370;4.832;2023-03-21T00:55:06;101554.22;;;8.67;100.00
69667;BME280;66534;52.370;4.832;2023-03-21T00:55:42;101558.59;;;8.67;100.00
69667;BME280;66534;52.370;4.832;2023-03-21T00:56:13;101556.03;;;8.65;100.00
69667;BME280;66534;52.370;4.832;2023-03-21T00:56:43;101557.66;;;8.69;100.00
69667;BME280;66534;52.370;4.832;2023-03-21T00:57:14;101556.75;;;8.70;100.00
69667;BME280;66534;52.370;4.832;2023-03-21T00:57:44;101554.94;;;8.74;100.00
69667;BME280;66534;52.370;4.832;2023-03-21T00:58:15;101554.75;;;8.80;100.00
69667;BME280;66534;52.370;4.832;2023-03-21T00:58:46;101555.47;;;8.87;100.00
69667;BME280;66534;52.370;4.832;2023-03-21T00:59:16;101555.66;;;8.79;100.00
69667;BME280;66534;52.370;4.832;2023-03-21T00:59:47;101551.41;;;8.75;100.00
69667;BME280;66534;52.370;4.832;2023-03-21T01:00:17;101547.84;;;8.78;100.00
69667;BME280;66534;52.370;4.832;2023-03-21T01:00:49;101559.22;;;8.77;100.00
69667;BME280;66534;52.370;4.832;2023-03-21T01:01:19;101551.56;;;8.69;100.00
69667;BME280;66534;52.370;4.832;2023-03-21T01:01:50;101552.50;;;8.66;100.00
69667;BME280;66534;52.370;4.832;2023-03-21T01:02:22;101552.34;;;8.72;100.00
69667;BME280;66534;52.370;4.832;2023-03-21T01:02:55;101555.78;;;8.75;100.00
69667;BME280;66534;52.370;4.832;2023-03-21T01:03:26;101541.06;;;8.70;100.00
69667;BME280;66534;52.370;4.832;2023-03-21T01:03:58;101546.25;;;8.72;100.00
69667;BME280;66534;52.370;4.832;2023-03-21T01:04:34;101540.22;;;8.70;100.00
69667;BME280;66534;52.370;4.832;2023-03-21T01:05:05;101547.16;;;8.71;100.00
69667;BME280;66534;52.370;4.832;2023-03-21T01:05:39;101545.31;;;8.75;100.00
69667;BME280;66534;52.370;4.832;2023-03-21T01:06:30;101551.47;;;8.72;100.00
69667;BME280;66534;52.370;4.832;2023-03-21T01:07:02;101546.09;;;8.78;100.00
69667;BME280;66534;52.370;4.832;2023-03-21T01:07:32;101540.09;;;8.75;100.00
69667;BME280;66534;52.370;4.832;2023-03-21T01:08:03;101539.19;;;8.76;100.00
69667;BME280;66534;52.370;4.832;2023-03-21T01:08:35;101541.81;;;8.76;100.00
69667;BME280;66534;52.370;4.832;2023-03-21T01:09:10;101539.38;;;8.68;100.00
69667;BME280;66534;52.370;4.832;2023-03-21T01:09:43;101543.50;;;8.77;100.00
69667;BME280;66534;52.370;4.832;2023-03-21T01:10:13;101539.25;;;8.74;100.00
69667;BME280;66534;52.370;4.832;2023-03-21T01:10:45;101534.03;;;8.72;100.00
69667;BME280;66534;52.370;4.832;2023-03-21T01:11:17;101533.13;;;8.73;100.00
69667;BME280;66534;52.370;4.832;2023-03-21T01:11:50;101542.72;;;8.75;100.00
69667;BME280;66534;52.370;4.832;2023-03-21T01:12:22;101544.47;;;8.74;100.00
69667;BME280;66534;52.370;4.832;2023-03-21T01:12:52;101539.13;;;8.77;100.00
69667;BME280;66534;52.370;4.832;2023-03-21T01:13:23;101538.16;;;8.81;100.00
69667;BME280;66534;52.370;4.832;2023-03-21T01:13:54;101536.63;;;8.72;100.00
69667;BME280;66534;52.370;4.832;2023-03-21T01:14:25;101533.09;;;8.75;100.00
69667;BME280;66534;52.370;4.832;2023-03-21T01:14:56;101540.00;;;8.78;100.00
69667;BME280;66534;52.370;4.832;2023-03-21T01:15:26;101540.88;;;8.78;100.00
69667;BME280;66534;52.370;4.832;2023-03-21T01:15:57;101533.72;;;8.85;100.00
69667;BME280;66534;52.370;4.832;2023-03-21T01:16:27;101532.13;;;8.79;100.00
69667;BME280;66534;52.370;4.832;2023-03-21T01:16:58;101531.28;;;8.77;100.00
69667;BME280;66534;52.370;4.832;2023-03-21T01:17:29;101533.03;;;8.78;100.00
69667;BME280;66534;52.370;4.832;2023-03-21T01:18:00;101534.75;;;8.79;100.00
69667;BME280;66534;52.370;4.832;2023-03-21T01:18:31;101537.31;;;8.81;100.00
69667;BME280;66534;52.370;4.832;2023-03-21T01:19:02;101540.16;;;8.71;100.00
69667;BME280;66534;52.370;4.832;2023-03-21T01:19:34;101530.47;;;8.75;100.00
69667;BME280;66534;52.370;4.832;2023-03-21T01:20:04;101529.47;;;8.81;100.00
69667;BME280;66534;52.370;4.832;2023-03-21T01:20:35;101536.50;;;8.79;100.00
69667;BME280;66534;52.370;4.832;2023-03-21T01:21:07;101530.31;;;8.81;100.00
69667;BME280;66534;52.370;4.832;2023-03-21T01:21:40;101528.59;;;8.80;100.00
69667;BME280;66534;52.370;4.832;2023-03-21T01:22:10;101529.34;;;8.85;100.00
69667;BME280;66534;52.370;4.832;2023-03-21T01:22:41;101530.28;;;8.83;100.00
69667;BME280;66534;52.370;4.832;2023-03-21T01:23:12;101531.09;;;8.85;100.00
69667;BME280;66534;52.370;4.832;2023-03-21T01:23:44;101526.06;;;8.77;100.00
69667;BME280;66534;52.370;4.832;2023-03-21T01:24:15;101528.56;;;8.82;100.00
69667;BME280;66534;52.370;4.832;2023-03-21T01:24:45;101525.94;;;8.82;100.00
69667;BME280;66534;52.370;4.832;2023-03-21T01:25:16;101529.50;;;8.79;100.00
69667;BME280;66534;52.370;4.832;2023-03-21T01:25:47;101522.56;;;8.78;100.00
69667;BME280;66534;52.370;4.832;2023-03-21T01:26:19;101516.56;;;8.73;100.00
69667;BME280;66534;52.370;4.832;2023-03-21T01:26:49;101526.97;;;8.76;100.00
69667;BME280;66534;52.370;4.832;2023-03-21T01:27:20;101524.19;;;8.82;100.00
69667;BME280;66534;52.370;4.832;2023-03-21T01:27:50;101521.47;;;8.87;100.00
69667;BME280;66534;52.370;4.832;2023-03-21T01:28:21;101523.22;;;8.86;100.00
69667;BME280;66534;52.370;4.832;2023-03-21T01:28:54;101528.47;;;8.86;100.00
69667;BME280;66534;52.370;4.832;2023-03-21T01:29:24;101520.56;;;8.88;100.00
69667;BME280;66534;52.370;4.832;2023-03-21T01:29:55;101525.53;;;8.97;100.00
69667;BME280;66534;52.370;4.832;2023-03-21T01:30:25;101517.94;;;8.88;100.00
69667;BME280;66534;52.370;4.832;2023-03-21T01:30:56;101524.09;;;8.85;100.00
69667;BME280;66534;52.370;4.832;2023-03-21T01:31:26;101517.94;;;8.88;100.00
69667;BME280;66534;52.370;4.832;2023-03-21T01:31:57;101513.81;;;8.79;100.00
69667;BME280;66534;52.370;4.832;2023-03-21T01:32:27;101519.00;;;8.81;100.00
69667;BME280;66534;52.370;4.832;2023-03-21T01:32:58;101515.44;;;8.83;100.00
69667;BME280;66534;52.370;4.832;2023-03-21T01:33:28;101515.47;;;8.82;100.00
69667;BME280;66534;52.370;4.832;2023-03-21T01:33:59;101511.03;;;8.85;100.00
69667;BME280;66534;52.370;4.832;2023-03-21T01:34:30;101518.00;;;8.85;100.00
69667;BME280;66534;52.370;4.832;2023-03-21T01:35:00;101514.41;;;8.89;100.00
69667;BME280;66534;52.370;4.832;2023-03-21T01:35:31;101515.38;;;8.86;100.00
69667;BME280;66534;52.370;4.832;2023-03-21T01:36:01;101516.44;;;8.79;100.00
69667;BME280;66534;52.370;4.832;2023-03-21T01:36:32;101511.22;;;8.78;100.00
69667;BME280;66534;52.370;4.832;2023-03-21T01:37:03;101514.53;;;8.84;100.00
69667;BME280;66534;52.370;4.832;2023-03-21T01:37:33;101510.94;;;8.88;100.00
69667;BME280;66534;52.370;4.832;2023-03-21T01:38:04;101510.28;;;8.80;100.00
69667;BME280;66534;52.370;4.832;2023-03-21T01:38:34;101505.13;;;8.77;100.00
69667;BME280;66534;52.370;4.832;2023-03-21T01:39:05;101498.78;;;8.86;100.00
69667;BME280;66534;52.370;4.832;2023-03-21T01:39:35;101503.16;;;8.85;100.00
69667;BME280;66534;52.370;4.832;2023-03-21T01:40:06;101506.50;;;8.92;100.00
69667;BME280;66534;52.370;4.832;2023-03-21T01:40:42;101507.41;;;8.89;100.00
69667;BME280;66534;52.370;4.832;2023-03-21T01:41:36;101511.66;;;8.93;100.00
69667;BME280;66534;52.370;4.832;2023-03-21T01:42:11;101506.56;;;8.89;100.00
69667;BME280;66534;52.370;4.832;2023-03-21T01:42:42;101508.31;;;8.88;100.00
69667;BME280;66534;52.370;4.832;2023-03-21T01:43:55;101506.69;;;8.84;100.00
69667;BME280;66534;52.370;4.832;2023-03-21T01:44:26;101504.13;;;8.83;100.00
69667;BME280;66534;52.370;4.832;2023-03-21T01:46:31;101503.28;;;8.82;100.00
69667;BME280;66534;52.370;4.832;2023-03-21T01:47:08;101507.63;;;8.82;100.00
69667;BME280;66534;52.370;4.832;2023-03-21T01:47:39;101502.28;;;8.86;100.00
69667;BME280;66534;52.370;4.832;2023-03-21T01:48:09;101501.38;;;8.87;100.00
69667;BME280;66534;52.370;4.832;2023-03-21T01:48:41;101513.69;;;8.84;100.00
69667;BME280;66534;52.370;4.832;2023-03-21T01:49:18;101507.63;;;8.82;100.00
69667;BME280;66534;52.370;4.832;2023-03-21T01:49:55;101505.72;;;8.88;100.00
69667;BME280;66534;52.370;4.832;2023-03-21T01:50:30;101503.22;;;8.84;100.00
69667;BME280;66534;52.370;4.832;2023-03-21T01:51:01;101509.09;;;8.92;100.00
69667;BME280;66534;52.370;4.832;2023-03-21T01:51:33;101507.28;;;8.95;100.00
69667;BME280;66534;52.370;4.832;2023-03-21T01:52:08;101504.03;;;8.86;100.00
69667;BME280;66534;52.370;4.832;2023-03-21T01:52:42;101501.41;;;8.86;100.00
69667;BME280;66534;52.370;4.832;2023-03-21T01:53:16;101506.50;;;8.92;100.00
69667;BME280;66534;52.370;4.832;2023-03-21T01:53:50;101507.47;;;8.88;100.00
69667;BME280;66534;52.370;4.832;2023-03-21T01:54:23;101505.00;;;8.82;100.00
69667;BME280;66534;52.370;4.832;2023-03-21T01:54:58;101508.25;;;8.91;100.00
69667;BME280;66534;52.370;4.832;2023-03-21T01:55:30;101512.38;;;9.00;100.00
69667;BME280;66534;52.370;4.832;2023-03-21T01:56:03;101502.72;;;9.02;100.00
69667;BME280;66534;52.370;4.832;2023-03-21T01:56:55;101503.03;;;8.90;100.00
69667;BME280;66534;52.370;4.832;2023-03-21T01:57:29;101508.00;;;9.01;100.00
69667;BME280;66534;52.370;4.832;2023-03-21T01:58:03;101301.00;;;7.85;100.00
69667;BME280;66534;52.370;4.832;2023-03-21T01:58:35;101504.47;;;9.02;100.00
69667;BME280;66534;52.370;4.832;2023-03-21T01:59:11;101508.13;;;8.96;100.00
69667;BME280;66534;52.370;4.832;2023-03-21T02:00:03;101501.00;;;9.01;100.00
69667;BME280;66534;52.370;4.832;2023-03-21T02:00:41;101504.69;;;8.94;100.00
69667;BME280;66534;52.370;4.832;2023-03-21T02:01:12;101501.31;;;8.90;100.00
69667;BME280;66534;52.370;4.832;2023-03-21T02:01:44;101502.81;;;8.99;100.00
69667;BME280;66534;52.370;4.832;2023-03-21T02:02:25;101506.50;;;8.92;100.00
69667;BME280;66534;52.370;4.832;2023-03-21T02:02:59;101499.69;;;8.86;100.00
69667;BME280;66534;52.370;4.832;2023-03-21T02:03:34;101500.44;;;8.90;100.00
69667;BME280;66534;52.370;4.832;2023-03-21T02:04:07;101504.81;;;8.89;100.00
69667;BME280;66534;52.370;4.832;2023-03-21T02:04:38;101498.34;;;9.03;100.00
69667;BME280;66534;52.370;4.832;2023-03-21T02:05:09;101500.16;;;9.01;100.00
69667;BME280;66534;52.370;4.832;2023-03-21T02:05:48;101499.31;;;8.98;100.00
69667;BME280;66534;52.370;4.832;2023-03-21T02:07:38;101494.38;;;9.19;100.00
69667;BME280;66534;52.370;4.832;2023-03-21T02:08:10;101491.25;;;9.06;100.00
69667;BME280;66534;52.370;4.832;2023-03-21T02:08:42;101492.16;;;9.05;100.00
69667;BME280;66534;52.370;4.832;2023-03-21T02:09:13;101494.84;;;9.04;100.00
69667;BME280;66534;52.370;4.832;2023-03-21T02:09:48;101496.19;;;8.86;100.00
69667;BME280;66534;52.370;4.832;2023-03-21T02:10:21;101495.25;;;8.88;100.00
69667;BME280;66534;52.370;4.832;2023-03-21T02:10:51;101495.16;;;8.91;100.00
69667;BME280;66534;52.370;4.832;2023-03-21T02:11:22;101495.06;;;8.94;100.00
69667;BME280;66534;52.370;4.832;2023-03-21T02:11:53;101487.53;;;8.84;100.00
69667;BME280;66534;52.370;4.832;2023-03-21T02:12:25;101487.59;;;8.81;100.00
69667;BME280;66534;52.370;4.832;2023-03-21T02:12:56;101481.38;;;8.86;100.00
69667;BME280;66534;52.370;4.832;2023-03-21T02:13:37;101487.34;;;8.90;100.00
69667;BME280;66534;52.370;4.832;2023-03-21T02:14:08;101488.13;;;8.93;100.00
69667;BME280;66534;52.370;4.832;2023-03-21T02:14:43;101482.28;;;8.84;100.00
69667;BME280;66534;52.370;4.832;2023-03-21T02:15:16;101473.97;;;9.01;100.00
69667;BME280;66534;52.370;4.832;2023-03-21T02:15:56;101482.81;;;8.96;100.00
69667;BME280;66534;52.370;4.832;2023-03-21T02:18:01;101483.53;;;9.02;100.00
69667;BME280;66534;52.370;4.832;2023-03-21T02:20:16;101476.13;;;8.86;100.00
69667;BME280;66534;52.370;4.832;2023-03-21T02:22:34;101469.88;;;8.92;100.00
69667;BME280;66534;52.370;4.832;2023-03-21T02:27:22;101464.56;;;8.95;100.00
69667;BME280;66534;52.370;4.832;2023-03-21T02:28:46;101468.09;;;8.92;100.00
69667;BME280;66534;52.370;4.832;2023-03-21T02:34:31;101461.09;;;8.93;100.00
69667;BME280;66534;52.370;4.832;2023-03-21T02:35:32;101462.66;;;9.00;100.00
69667;BME280;66534;52.370;4.832;2023-03-21T02:37:09;101453.19;;;8.94;100.00
69667;BME280;66534;52.370;4.832;2023-03-21T02:39:01;101454.03;;;8.96;100.00
69667;BME280;66534;52.370;4.832;2023-03-21T02:40:29;101451.94;;;9.09;100.00
69667;BME280;66534;52.370;4.832;2023-03-21T02:41:05;101450.50;;;8.97;100.00
69667;BME280;66534;52.370;4.832;2023-03-21T02:42:56;101447.16;;;8.92;100.00
69667;BME280;66534;52.370;4.832;2023-03-21T02:44:25;101446.97;;;9.00;100.00
69667;BME280;66534;52.370;4.832;2023-03-21T02:45:30;101443.50;;;8.98;100.00
69667;BME280;66534;52.370;4.832;2023-03-21T02:46:13;101437.56;;;8.93;100.00
69667;BME280;66534;52.370;4.832;2023-03-21T02:46:54;101442.53;;;9.02;100.00
69667;BME280;66534;52.370;4.832;2023-03-21T02:47:38;101439.88;;;9.04;100.00
69667;BME280;66534;52.370;4.832;2023-03-21T02:48:28;101441.66;;;9.03;100.00
69667;BME280;66534;52.370;4.832;2023-03-21T02:49:08;101433.75;;;9.05;100.00
69667;BME280;66534;52.370;4.832;2023-03-21T02:50:22;101435.63;;;9.00;100.00
69667;BME280;66534;52.370;4.832;2023-03-21T02:50:42;101439.13;;;8.98;100.00
69667;BME280;66534;52.370;4.832;2023-03-21T02:51:18;101443.63;;;8.95;100.00
69667;BME280;66534;52.370;4.832;2023-03-21T02:51:52;101432.13;;;9.01;100.00
69667;BME280;66534;52.370;4.832;2023-03-21T02:52:26;101439.13;;;8.98;100.00
69667;BME280;66534;52.370;4.832;2023-03-21T02:53:00;101439.25;;;8.95;100.00
69667;BME280;66534;52.370;4.832;2023-03-21T02:53:36;101432.97;;;9.01;100.00
69667;BME280;66534;52.370;4.832;2023-03-21T02:54:11;101436.56;;;8.97;100.00
69667;BME280;66534;52.370;4.832;2023-03-21T02:54:45;101433.09;;;8.96;100.00
69667;BME280;66534;52.370;4.832;2023-03-21T02:55:21;101441.84;;;8.95;100.00
69667;BME280;66534;52.370;4.832;2023-03-21T02:55:54;101430.69;;;8.89;100.00
69667;BME280;66534;52.370;4.832;2023-03-21T02:56:26;101434.94;;;8.93;100.00
69667;BME280;66534;52.370;4.832;2023-03-21T02:56:57;101434.94;;;8.93;100.00
69667;BME280;66534;52.370;4.832;2023-03-21T02:57:29;101432.50;;;8.87;100.00
69667;BME280;66534;52.370;4.832;2023-03-21T02:58:01;101429.78;;;8.90;100.00
69667;BME280;66534;52.370;4.832;2023-03-21T02:58:32;101438.41;;;8.93;100.00
69667;BME280;66534;52.370;4.832;2023-03-21T02:59:03;101431.53;;;8.91;100.00
69667;BME280;66534;52.370;4.832;2023-03-21T02:59:35;101434.03;;;8.94;100.00
69667;BME280;66534;52.370;4.832;2023-03-21T03:00:09;101434.16;;;8.89;100.00
69667;BME280;66534;52.370;4.832;2023-03-21T03:00:42;101437.56;;;8.93;100.00
69667;BME280;66534;52.370;4.832;2023-03-21T03:01:13;101433.28;;;8.90;100.00
69667;BME280;66534;52.370;4.832;2023-03-21T03:01:44;101430.47;;;8.96;100.00
69667;BME280;66534;52.370;4.832;2023-03-21T03:02:15;101440.81;;;9.01;100.00
69667;BME280;66534;52.370;4.832;2023-03-21T03:02:50;101435.84;;;8.92;100.00
69667;BME280;66534;52.370;4.832;2023-03-21T03:03:21;101431.53;;;8.89;100.00
69667;BME280;66534;52.370;4.832;2023-03-21T03:03:52;101432.53;;;8.85;100.00
69667;BME280;66534;52.370;4.832;2023-03-21T03:04:23;101432.41;;;8.90;100.00
69667;BME280;66534;52.370;4.832;2023-03-21T03:04:58;101428.94;;;8.89;100.00
69667;BME280;66534;52.370;4.832;2023-03-21T03:05:30;101425.44;;;8.90;100.00
69667;BME280;66534;52.370;4.832;2023-03-21T03:06:18;101429.56;;;8.97;100.00
69667;BME280;66534;52.370;4.832;2023-03-21T03:07:14;101425.13;;;9.01;100.00
69667;BME280;66534;52.370;4.832;2023-03-21T03:09:07;101427.03;;;8.94;100.00
69667;BME280;66534;52.370;4.832;2023-03-21T03:11:32;101436.88;;;8.86;100.00
69667;BME280;66534;52.370;4.832;2023-03-21T03:12:11;101431.59;;;8.88;100.00
69667;BME280;66534;52.370;4.832;2023-03-21T03:13:13;101432.31;;;8.93;100.00
69667;BME280;66534;52.370;4.832;2023-03-21T03:14:35;101433.38;;;8.86;100.00
69667;BME280;66534;52.370;4.832;2023-03-21T03:17:57;101434.38;;;8.82;100.00
69667;BME280;66534;52.370;4.832;2023-03-21T03:18:41;101434.34;;;8.83;100.00
69667;BME280;66534;52.370;4.832;2023-03-21T03:20:59;101428.06;;;8.89;100.00
69667;BME280;66534;52.370;4.832;2023-03-21T03:21:47;101427.94;;;8.93;100.00
69667;BME280;66534;52.370;4.832;2023-03-21T03:22:27;101429.78;;;8.90;100.00
69667;BME280;66534;52.370;4.832;2023-03-21T03:24:36;101427.03;;;8.94;100.00
69667;BME280;66534;52.370;4.832;2023-03-21T03:26:25;101424.66;;;8.87;100.00
69667;BME280;66534;52.370;4.832;2023-03-21T03:27:06;101422.19;;;8.81;100.00
69667;BME280;66534;52.370;4.832;2023-03-21T03:27:42;101426.53;;;8.82;100.00
69667;BME280;66534;52.370;4.832;2023-03-21T03:28:14;101425.78;;;8.77;100.00
69667;BME280;66534;52.370;4.832;2023-03-21T03:28:49;101428.25;;;8.83;100.00
69667;BME280;66534;52.370;4.832;2023-03-21T03:29:22;101424.00;;;8.79;100.00